DAL7245 SAVE-SAZR
Flight info
| Callsign | DAL7245 |
|---|---|
| Flight time | 1h 15m |
| Altitude | 33000 |
| Route | ESQ UT657 DAKSA DCT OSA |
| Aircraft | B722/M-SDFHIR/C |
Departure
| Time | 2026-04-16 15:11 |
|---|---|
| Airport | Esquel Brigadier Antonio Parodi International Airport (SAVE) |
Arrival
| Time | 2026-04-16 16:27 |
|---|---|
| Airport | Santa Rosa Airport (SAZR) |
| Time | Latitude | Longitude | Altitude | Speed | Heading |
|---|---|---|---|---|---|
| 2026-04-16 14:54 | -42.90653 | -71.14602 | 2614 ft | 0 kts | 92° |
| 2026-04-16 15:04 | -42.90653 | -71.14611 | 2614 ft | 4 kts | 92° |
| 2026-04-16 15:04 | -42.90650 | -71.14646 | 2615 ft | 0 kts | 114° |
| 2026-04-16 15:04 | -42.90651 | -71.14642 | 2615 ft | 1 kts | 123° |
| 2026-04-16 15:05 | -42.90669 | -71.14623 | 2615 ft | 6 kts | 148° |
| 2026-04-16 15:05 | -42.90708 | -71.14593 | 2615 ft | 6 kts | 145° |
| 2026-04-16 15:05 | -42.90735 | -71.14540 | 2615 ft | 7 kts | 105° |
| 2026-04-16 15:05 | -42.90736 | -71.14462 | 2615 ft | 9 kts | 81° |
| 2026-04-16 15:06 | -42.90731 | -71.14363 | 2614 ft | 12 kts | 86° |
| 2026-04-16 15:06 | -42.90707 | -71.14249 | 2613 ft | 14 kts | 58° |
| 2026-04-16 15:06 | -42.90652 | -71.14126 | 2610 ft | 17 kts | 57° |
| 2026-04-16 15:06 | -42.90581 | -71.13987 | 2608 ft | 19 kts | 58° |
| 2026-04-16 15:07 | -42.90512 | -71.13832 | 2608 ft | 20 kts | 59° |
| 2026-04-16 15:07 | -42.90435 | -71.13667 | 2607 ft | 21 kts | 53° |
| 2026-04-16 15:07 | -42.90351 | -71.13497 | 2605 ft | 23 kts | 58° |
| 2026-04-16 15:07 | -42.90267 | -71.13310 | 2603 ft | 24 kts | 54° |
| 2026-04-16 15:08 | -42.90166 | -71.13111 | 2594 ft | 27 kts | 57° |
| 2026-04-16 15:08 | -42.90065 | -71.12890 | 2589 ft | 28 kts | 59° |
| 2026-04-16 15:08 | -42.89956 | -71.12663 | 2589 ft | 29 kts | 58° |
| 2026-04-16 15:08 | -42.89878 | -71.12497 | 2584 ft | 14 kts | 56° |
| 2026-04-16 15:09 | -42.89816 | -71.12403 | 2593 ft | 10 kts | 33° |
| 2026-04-16 15:09 | -42.89812 | -71.12349 | 2590 ft | 5 kts | 196° |
| 2026-04-16 15:09 | -42.89827 | -71.12376 | 2590 ft | 4 kts | 248° |
| 2026-04-16 15:09 | -42.89838 | -71.12410 | 2586 ft | 4 kts | 242° |
| 2026-04-16 15:10 | -42.89840 | -71.12415 | 2584 ft | 0 kts | 241° |
| 2026-04-16 15:10 | -42.89849 | -71.12436 | 2587 ft | 14 kts | 240° |
| 2026-04-16 15:11 | -42.90009 | -71.12777 | 2592 ft | 72 kts | 237° |
| 2026-04-16 15:11 | -42.90375 | -71.13543 | 2606 ft | 121 kts | 237° |
| 2026-04-16 15:11 | -42.90901 | -71.14665 | 2676 ft | 152 kts | 236° |
| 2026-04-16 15:11 | -42.91477 | -71.15818 | 3236 ft | 144 kts | 232° |
| 2026-04-16 15:12 | -42.92206 | -71.16711 | 3690 ft | 146 kts | 211° |
| 2026-04-16 15:12 | -42.93142 | -71.17395 | 4007 ft | 157 kts | 206° |
| 2026-04-16 15:12 | -42.94167 | -71.18024 | 4411 ft | 165 kts | 201° |
| 2026-04-16 15:12 | -42.95299 | -71.18372 | 4928 ft | 168 kts | 185° |
| 2026-04-16 15:13 | -42.96470 | -71.18145 | 5357 ft | 179 kts | 163° |
| 2026-04-16 15:13 | -42.97622 | -71.17269 | 5555 ft | 201 kts | 145° |
| 2026-04-16 15:13 | -42.98435 | -71.15627 | 5755 ft | 219 kts | 105° |
| 2026-04-16 15:13 | -42.98755 | -71.13522 | 6063 ft | 234 kts | 97° |
| 2026-04-16 15:14 | -42.98826 | -71.11265 | 6363 ft | 247 kts | 81° |
| 2026-04-16 15:14 | -42.98443 | -71.09027 | 6987 ft | 240 kts | 62° |
| 2026-04-16 15:14 | -42.97639 | -71.07028 | 7515 ft | 240 kts | 48° |
| 2026-04-16 15:14 | -42.96433 | -71.05499 | 8033 ft | 236 kts | 29° |
| 2026-04-16 15:15 | -42.95077 | -71.04229 | 8542 ft | 238 kts | 30° |
| 2026-04-16 15:15 | -42.93774 | -71.02743 | 9166 ft | 248 kts | 36° |
| 2026-04-16 15:15 | -42.92494 | -71.01191 | 10122 ft | 246 kts | 36° |
| 2026-04-16 15:15 | -42.91195 | -70.99592 | 10827 ft | 255 kts | 35° |
| 2026-04-16 15:16 | -42.89873 | -70.97960 | 11601 ft | 258 kts | 36° |
| 2026-04-16 15:16 | -42.88523 | -70.96298 | 12231 ft | 267 kts | 36° |
| 2026-04-16 15:16 | -42.87104 | -70.94553 | 12756 ft | 283 kts | 36° |
| 2026-04-16 15:16 | -42.85597 | -70.92720 | 13293 ft | 298 kts | 35° |
| 2026-04-16 15:17 | -42.83997 | -70.90801 | 13817 ft | 314 kts | 35° |
| 2026-04-16 15:17 | -42.82312 | -70.88801 | 14352 ft | 328 kts | 36° |
| 2026-04-16 15:17 | -42.80766 | -70.86384 | 14830 ft | 350 kts | 50° |
| 2026-04-16 15:17 | -42.79450 | -70.83491 | 15321 ft | 368 kts | 56° |
| 2026-04-16 15:18 | -42.78607 | -70.81464 | 15616 ft | 378 kts | 56° |
| 2026-04-16 15:18 | -42.77278 | -70.78280 | 16059 ft | 393 kts | 56° |
| 2026-04-16 15:18 | -42.75435 | -70.73892 | 16633 ft | 412 kts | 57° |
| 2026-04-16 15:18 | -42.74014 | -70.70431 | 17063 ft | 425 kts | 57° |
| 2026-04-16 15:19 | -42.73030 | -70.68039 | 17350 ft | 434 kts | 57° |
| 2026-04-16 15:19 | -42.71553 | -70.64456 | 17761 ft | 445 kts | 57° |
| 2026-04-16 15:19 | -42.70015 | -70.60742 | 18180 ft | 456 kts | 57° |
| 2026-04-16 15:19 | -42.68435 | -70.56934 | 18595 ft | 466 kts | 57° |
| 2026-04-16 15:20 | -42.66822 | -70.53063 | 19007 ft | 475 kts | 57° |
| 2026-04-16 15:20 | -42.65176 | -70.49124 | 19416 ft | 484 kts | 57° |
| 2026-04-16 15:20 | -42.63499 | -70.45117 | 19823 ft | 489 kts | 57° |
| 2026-04-16 15:20 | -42.61814 | -70.41091 | 20237 ft | 489 kts | 57° |
| 2026-04-16 15:21 | -42.60167 | -70.37135 | 20794 ft | 483 kts | 57° |
| 2026-04-16 15:21 | -42.58525 | -70.33173 | 21420 ft | 481 kts | 57° |
| 2026-04-16 15:21 | -42.56902 | -70.29247 | 22033 ft | 473 kts | 57° |
| 2026-04-16 15:21 | -42.55285 | -70.25385 | 22642 ft | 468 kts | 56° |
| 2026-04-16 15:22 | -42.53676 | -70.21571 | 23221 ft | 465 kts | 56° |
| 2026-04-16 15:22 | -42.52078 | -70.17775 | 23726 ft | 463 kts | 56° |
| 2026-04-16 15:22 | -42.50480 | -70.13976 | 24242 ft | 461 kts | 56° |
| 2026-04-16 15:22 | -42.48898 | -70.10207 | 24750 ft | 459 kts | 55° |
| 2026-04-16 15:23 | -42.47325 | -70.06462 | 25259 ft | 456 kts | 55° |
| 2026-04-16 15:23 | -42.45751 | -70.02738 | 25776 ft | 453 kts | 55° |
| 2026-04-16 15:23 | -42.44184 | -69.99052 | 26286 ft | 450 kts | 54° |
| 2026-04-16 15:23 | -42.42624 | -69.95392 | 26792 ft | 448 kts | 54° |
| 2026-04-16 15:24 | -42.41094 | -69.91798 | 27292 ft | 445 kts | 54° |
| 2026-04-16 15:24 | -42.39554 | -69.88178 | 27796 ft | 442 kts | 53° |
| 2026-04-16 15:24 | -42.38033 | -69.84593 | 28304 ft | 438 kts | 53° |
| 2026-04-16 15:24 | -42.36522 | -69.81027 | 28808 ft | 435 kts | 53° |
| 2026-04-16 15:25 | -42.35026 | -69.77490 | 29310 ft | 431 kts | 53° |
| 2026-04-16 15:25 | -42.33541 | -69.73981 | 29765 ft | 428 kts | 53° |
| 2026-04-16 15:25 | -42.32050 | -69.70493 | 30028 ft | 430 kts | 52° |
| 2026-04-16 15:25 | -42.30542 | -69.66981 | 30161 ft | 435 kts | 52° |
| 2026-04-16 15:26 | -42.29009 | -69.63426 | 30315 ft | 440 kts | 52° |
| 2026-04-16 15:26 | -42.27464 | -69.59841 | 30476 ft | 444 kts | 52° |
| 2026-04-16 15:26 | -42.25903 | -69.56217 | 30635 ft | 447 kts | 53° |
| 2026-04-16 15:26 | -42.24341 | -69.52572 | 30800 ft | 451 kts | 52° |
| 2026-04-16 15:27 | -42.22760 | -69.48892 | 30954 ft | 455 kts | 52° |
| 2026-04-16 15:27 | -42.21165 | -69.45190 | 31112 ft | 458 kts | 52° |
| 2026-04-16 15:27 | -42.19554 | -69.41460 | 31269 ft | 461 kts | 52° |
| 2026-04-16 15:27 | -42.17953 | -69.37761 | 31434 ft | 464 kts | 52° |
| 2026-04-16 15:28 | -42.16316 | -69.33990 | 31580 ft | 467 kts | 52° |
| 2026-04-16 15:28 | -42.14669 | -69.30199 | 31735 ft | 470 kts | 52° |
| 2026-04-16 15:28 | -42.13007 | -69.26388 | 31893 ft | 473 kts | 52° |
| 2026-04-16 15:28 | -42.11330 | -69.22557 | 32046 ft | 477 kts | 53° |
| 2026-04-16 15:29 | -42.09633 | -69.18695 | 32198 ft | 481 kts | 52° |
| 2026-04-16 15:29 | -42.07920 | -69.14801 | 32361 ft | 485 kts | 53° |
| 2026-04-16 15:29 | -42.06211 | -69.10871 | 32522 ft | 488 kts | 53° |
| 2026-04-16 15:29 | -42.04485 | -69.06908 | 32680 ft | 492 kts | 53° |
| 2026-04-16 15:30 | -42.02764 | -69.02966 | 32821 ft | 496 kts | 53° |
| 2026-04-16 15:30 | -41.99214 | -68.94873 | 32838 ft | 507 kts | 53° |
| 2026-04-16 15:31 | -41.95593 | -68.86668 | 32836 ft | 512 kts | 54° |
| 2026-04-16 15:31 | -41.91927 | -68.78404 | 32830 ft | 517 kts | 54° |
| 2026-04-16 15:32 | -41.88223 | -68.70071 | 32828 ft | 521 kts | 54° |
| 2026-04-16 15:32 | -41.84537 | -68.61678 | 32830 ft | 522 kts | 55° |
| 2026-04-16 15:33 | -41.80896 | -68.53327 | 32829 ft | 522 kts | 55° |
| 2026-04-16 15:33 | -41.77211 | -68.44911 | 32829 ft | 523 kts | 55° |
| 2026-04-16 15:34 | -41.73515 | -68.36512 | 32830 ft | 522 kts | 55° |
| 2026-04-16 15:34 | -41.69787 | -68.28170 | 32830 ft | 522 kts | 54° |
| 2026-04-16 15:35 | -41.65991 | -68.19896 | 32831 ft | 522 kts | 54° |
| 2026-04-16 15:35 | -41.62208 | -68.11707 | 32830 ft | 521 kts | 54° |
| 2026-04-16 15:36 | -41.58400 | -68.03457 | 32830 ft | 521 kts | 54° |
| 2026-04-16 15:36 | -41.54595 | -67.95214 | 32830 ft | 522 kts | 54° |
| 2026-04-16 15:37 | -41.50814 | -67.86928 | 32830 ft | 522 kts | 55° |
| 2026-04-16 15:37 | -41.47065 | -67.78616 | 32830 ft | 523 kts | 56° |
| 2026-04-16 15:38 | -41.43359 | -67.70258 | 32831 ft | 523 kts | 56° |
| 2026-04-16 15:38 | -41.39648 | -67.61962 | 32836 ft | 523 kts | 56° |
| 2026-04-16 15:39 | -41.35906 | -67.53646 | 32835 ft | 524 kts | 56° |
| 2026-04-16 15:39 | -41.32162 | -67.45329 | 32836 ft | 524 kts | 56° |
| 2026-04-16 15:40 | -41.28397 | -67.37026 | 32832 ft | 524 kts | 56° |
| 2026-04-16 15:40 | -41.24613 | -67.28734 | 32833 ft | 524 kts | 56° |
| 2026-04-16 15:41 | -41.20851 | -67.20500 | 32833 ft | 524 kts | 56° |
| 2026-04-16 15:41 | -41.17060 | -67.12218 | 32852 ft | 524 kts | 56° |
| 2026-04-16 15:42 | -41.13259 | -67.03928 | 32845 ft | 525 kts | 56° |
| 2026-04-16 15:42 | -41.09518 | -66.95679 | 32846 ft | 525 kts | 56° |
| 2026-04-16 15:43 | -41.05715 | -66.87396 | 32849 ft | 525 kts | 57° |
| 2026-04-16 15:43 | -41.01503 | -66.79579 | 32849 ft | 518 kts | 39° |
| 2026-04-16 15:43 | -40.98601 | -66.76784 | 32867 ft | 514 kts | 28° |
| 2026-04-16 15:44 | -40.95409 | -66.74727 | 32872 ft | 509 kts | 18° |
| 2026-04-16 15:44 | -40.88803 | -66.71301 | 32862 ft | 510 kts | 18° |
| 2026-04-16 15:45 | -40.82266 | -66.67766 | 32862 ft | 511 kts | 20° |
| 2026-04-16 15:45 | -40.75717 | -66.64051 | 32860 ft | 512 kts | 20° |
| 2026-04-16 15:46 | -40.69188 | -66.60239 | 32859 ft | 513 kts | 21° |
| 2026-04-16 15:46 | -40.62659 | -66.56394 | 32862 ft | 514 kts | 22° |
| 2026-04-16 15:47 | -40.56149 | -66.52468 | 32863 ft | 515 kts | 22° |
| 2026-04-16 15:47 | -40.49630 | -66.48541 | 32860 ft | 516 kts | 22° |
| 2026-04-16 15:48 | -40.43144 | -66.44636 | 32860 ft | 516 kts | 22° |
| 2026-04-16 15:48 | -40.36602 | -66.40710 | 32861 ft | 517 kts | 22° |
| 2026-04-16 15:49 | -40.30059 | -66.36797 | 32861 ft | 518 kts | 22° |
| 2026-04-16 15:49 | -40.23484 | -66.32902 | 32864 ft | 518 kts | 22° |
| 2026-04-16 15:50 | -40.16897 | -66.29033 | 32863 ft | 518 kts | 22° |
| 2026-04-16 15:50 | -40.10298 | -66.25182 | 32863 ft | 519 kts | 22° |
| 2026-04-16 15:51 | -40.03707 | -66.21326 | 32863 ft | 519 kts | 22° |
| 2026-04-16 15:51 | -39.97165 | -66.17504 | 32895 ft | 519 kts | 22° |
| 2026-04-16 15:52 | -39.90576 | -66.13599 | 32903 ft | 520 kts | 22° |
| 2026-04-16 15:52 | -39.83993 | -66.09696 | 32894 ft | 520 kts | 22° |
| 2026-04-16 15:53 | -39.77411 | -66.05812 | 32905 ft | 519 kts | 22° |
| 2026-04-16 15:53 | -39.70820 | -66.01937 | 32899 ft | 519 kts | 22° |
| 2026-04-16 15:54 | -39.64268 | -65.98125 | 32895 ft | 518 kts | 22° |
| 2026-04-16 15:54 | -39.57674 | -65.94302 | 32898 ft | 518 kts | 22° |
| 2026-04-16 15:55 | -39.51083 | -65.90491 | 32902 ft | 518 kts | 22° |
| 2026-04-16 15:55 | -39.44496 | -65.86696 | 32901 ft | 517 kts | 22° |
| 2026-04-16 15:56 | -39.37910 | -65.82908 | 32905 ft | 518 kts | 22° |
| 2026-04-16 15:56 | -39.31378 | -65.79142 | 32902 ft | 517 kts | 22° |
| 2026-04-16 15:57 | -39.24803 | -65.75355 | 32906 ft | 517 kts | 22° |
| 2026-04-16 15:57 | -39.18226 | -65.71572 | 32907 ft | 516 kts | 22° |
| 2026-04-16 15:58 | -39.11668 | -65.67807 | 32906 ft | 516 kts | 22° |
| 2026-04-16 15:58 | -39.05147 | -65.64071 | 32903 ft | 516 kts | 22° |
| 2026-04-16 15:59 | -38.95332 | -65.58460 | 32905 ft | 515 kts | 22° |
| 2026-04-16 15:59 | -38.88770 | -65.54713 | 32905 ft | 515 kts | 22° |
| 2026-04-16 16:00 | -38.82212 | -65.50970 | 32917 ft | 515 kts | 22° |
| 2026-04-16 16:00 | -38.75675 | -65.47247 | 32910 ft | 514 kts | 22° |
| 2026-04-16 16:01 | -38.69129 | -65.43542 | 32916 ft | 514 kts | 22° |
| 2026-04-16 16:01 | -38.62610 | -65.39916 | 32923 ft | 514 kts | 22° |
| 2026-04-16 16:02 | -38.56075 | -65.36195 | 32920 ft | 514 kts | 23° |
| 2026-04-16 16:02 | -38.49585 | -65.32351 | 32931 ft | 514 kts | 23° |
| 2026-04-16 16:03 | -38.43043 | -65.28642 | 32930 ft | 513 kts | 21° |
| 2026-04-16 16:03 | -38.36446 | -65.25111 | 32932 ft | 513 kts | 21° |
| 2026-04-16 16:04 | -38.29891 | -65.21520 | 32931 ft | 513 kts | 22° |
| 2026-04-16 16:04 | -38.23382 | -65.17902 | 32932 ft | 513 kts | 22° |
| 2026-04-16 16:05 | -38.16841 | -65.14272 | 32934 ft | 513 kts | 22° |
| 2026-04-16 16:05 | -38.10307 | -65.10655 | 32937 ft | 505 kts | 22° |
| 2026-04-16 16:06 | -38.07173 | -65.08916 | 32864 ft | 480 kts | 22° |
| 2026-04-16 16:06 | -38.04173 | -65.07225 | 32479 ft | 464 kts | 22° |
| 2026-04-16 16:06 | -38.01266 | -65.05567 | 32011 ft | 452 kts | 22° |
| 2026-04-16 16:06 | -37.98433 | -65.03956 | 31550 ft | 441 kts | 22° |
| 2026-04-16 16:07 | -37.95662 | -65.02408 | 31081 ft | 431 kts | 21° |
| 2026-04-16 16:07 | -37.92932 | -65.00914 | 30591 ft | 422 kts | 21° |
| 2026-04-16 16:07 | -37.90266 | -64.99448 | 30130 ft | 414 kts | 21° |
| 2026-04-16 16:07 | -37.88524 | -64.98490 | 29819 ft | 409 kts | 21° |
| 2026-04-16 16:08 | -37.85932 | -64.97062 | 29351 ft | 402 kts | 21° |
| 2026-04-16 16:08 | -37.82569 | -64.95208 | 28729 ft | 394 kts | 21° |
| 2026-04-16 16:08 | -37.80875 | -64.94274 | 28397 ft | 390 kts | 21° |
| 2026-04-16 16:08 | -37.78401 | -64.92909 | 27915 ft | 386 kts | 21° |
| 2026-04-16 16:09 | -37.75954 | -64.91559 | 27432 ft | 382 kts | 21° |
| 2026-04-16 16:09 | -37.73558 | -64.90239 | 26961 ft | 379 kts | 21° |
| 2026-04-16 16:09 | -37.71149 | -64.88912 | 26487 ft | 377 kts | 21° |
| 2026-04-16 16:09 | -37.68748 | -64.87591 | 26009 ft | 376 kts | 21° |
| 2026-04-16 16:10 | -37.66345 | -64.86268 | 25536 ft | 377 kts | 21° |
| 2026-04-16 16:10 | -37.63942 | -64.84944 | 25075 ft | 377 kts | 21° |
| 2026-04-16 16:10 | -37.61535 | -64.83620 | 24611 ft | 377 kts | 21° |
| 2026-04-16 16:10 | -37.59126 | -64.82295 | 24144 ft | 377 kts | 21° |
| 2026-04-16 16:11 | -37.56728 | -64.80961 | 23679 ft | 377 kts | 22° |
| 2026-04-16 16:11 | -37.54362 | -64.79519 | 23209 ft | 377 kts | 27° |
| 2026-04-16 16:11 | -37.52168 | -64.77700 | 22740 ft | 378 kts | 36° |
| 2026-04-16 16:11 | -37.50144 | -64.75589 | 22276 ft | 378 kts | 39° |
| 2026-04-16 16:12 | -37.48151 | -64.73428 | 21812 ft | 377 kts | 39° |
| 2026-04-16 16:12 | -37.46157 | -64.71266 | 21347 ft | 377 kts | 39° |
| 2026-04-16 16:12 | -37.44192 | -64.69137 | 20880 ft | 377 kts | 39° |
| 2026-04-16 16:12 | -37.42210 | -64.66990 | 20412 ft | 376 kts | 39° |
| 2026-04-16 16:13 | -37.40228 | -64.64843 | 19944 ft | 375 kts | 39° |
| 2026-04-16 16:13 | -37.38250 | -64.62701 | 19474 ft | 375 kts | 39° |
| 2026-04-16 16:13 | -37.36271 | -64.60559 | 19008 ft | 374 kts | 39° |
| 2026-04-16 16:13 | -37.34297 | -64.58424 | 18535 ft | 373 kts | 39° |
| 2026-04-16 16:14 | -37.32324 | -64.56293 | 18065 ft | 373 kts | 39° |
| 2026-04-16 16:14 | -37.30387 | -64.54198 | 17600 ft | 372 kts | 39° |
| 2026-04-16 16:14 | -37.28424 | -64.52076 | 17134 ft | 370 kts | 39° |
| 2026-04-16 16:14 | -37.26444 | -64.50029 | 16670 ft | 367 kts | 34° |
| 2026-04-16 16:15 | -37.24269 | -64.48382 | 16179 ft | 364 kts | 25° |
| 2026-04-16 16:15 | -37.21983 | -64.47034 | 15713 ft | 362 kts | 22° |
| 2026-04-16 16:15 | -37.19704 | -64.45737 | 15243 ft | 356 kts | 22° |
| 2026-04-16 16:15 | -37.17466 | -64.44462 | 14764 ft | 350 kts | 22° |
| 2026-04-16 16:16 | -37.15259 | -64.43201 | 14282 ft | 346 kts | 22° |
| 2026-04-16 16:16 | -37.13081 | -64.41957 | 13817 ft | 340 kts | 22° |
| 2026-04-16 16:16 | -37.10943 | -64.40734 | 13413 ft | 334 kts | 22° |
| 2026-04-16 16:16 | -37.08846 | -64.39539 | 13017 ft | 328 kts | 22° |
| 2026-04-16 16:17 | -37.06729 | -64.38558 | 12584 ft | 321 kts | 11° |
| 2026-04-16 16:17 | -37.04585 | -64.38045 | 12187 ft | 316 kts | 5° |
| 2026-04-16 16:17 | -37.02421 | -64.37673 | 11787 ft | 311 kts | 5° |
| 2026-04-16 16:17 | -37.00291 | -64.37299 | 11394 ft | 307 kts | 6° |
| 2026-04-16 16:18 | -36.98182 | -64.36879 | 10978 ft | 305 kts | 7° |
| 2026-04-16 16:18 | -36.96104 | -64.36420 | 10589 ft | 302 kts | 8° |
| 2026-04-16 16:18 | -36.94051 | -64.35942 | 10207 ft | 298 kts | 9° |
| 2026-04-16 16:18 | -36.92017 | -64.35454 | 9827 ft | 295 kts | 10° |
| 2026-04-16 16:19 | -36.90014 | -64.34966 | 9449 ft | 292 kts | 10° |
| 2026-04-16 16:19 | -36.88032 | -64.34483 | 9072 ft | 289 kts | 11° |
| 2026-04-16 16:19 | -36.86072 | -64.34005 | 8702 ft | 286 kts | 11° |
| 2026-04-16 16:19 | -36.84128 | -64.33530 | 8348 ft | 282 kts | 11° |
| 2026-04-16 16:20 | -36.82210 | -64.33064 | 8014 ft | 278 kts | 11° |
| 2026-04-16 16:20 | -36.80324 | -64.32605 | 7712 ft | 274 kts | 11° |
| 2026-04-16 16:20 | -36.78488 | -64.32158 | 7408 ft | 271 kts | 11° |
| 2026-04-16 16:20 | -36.76648 | -64.31713 | 7104 ft | 267 kts | 11° |
| 2026-04-16 16:21 | -36.74830 | -64.31271 | 6786 ft | 265 kts | 11° |
| 2026-04-16 16:21 | -36.73032 | -64.30835 | 6481 ft | 263 kts | 11° |
| 2026-04-16 16:21 | -36.71258 | -64.30404 | 6208 ft | 252 kts | 11° |
| 2026-04-16 16:21 | -36.69626 | -64.30005 | 5865 ft | 225 kts | 11° |
| 2026-04-16 16:22 | -36.68167 | -64.29487 | 4971 ft | 221 kts | 25° |
| 2026-04-16 16:22 | -36.66919 | -64.28372 | 4142 ft | 213 kts | 50° |
| 2026-04-16 16:22 | -36.66384 | -64.26820 | 3817 ft | 187 kts | 86° |
| 2026-04-16 16:22 | -36.66664 | -64.25318 | 3384 ft | 176 kts | 122° |
| 2026-04-16 16:23 | -36.67576 | -64.24393 | 3015 ft | 168 kts | 161° |
| 2026-04-16 16:23 | -36.68680 | -64.24330 | 2818 ft | 157 kts | 195° |
| 2026-04-16 16:23 | -36.69648 | -64.25036 | 2544 ft | 167 kts | 227° |
| 2026-04-16 16:23 | -36.70178 | -64.26264 | 2462 ft | 166 kts | 259° |
| 2026-04-16 16:24 | -36.70073 | -64.27687 | 2367 ft | 165 kts | 294° |
| 2026-04-16 16:24 | -36.69378 | -64.28730 | 2341 ft | 154 kts | 326° |
| 2026-04-16 16:24 | -36.68386 | -64.29144 | 2229 ft | 152 kts | 1° |
| 2026-04-16 16:24 | -36.67399 | -64.28713 | 2090 ft | 154 kts | 35° |
| 2026-04-16 16:25 | -36.66577 | -64.27925 | 2145 ft | 141 kts | 20° |
| 2026-04-16 16:25 | -36.65572 | -64.27970 | 2001 ft | 160 kts | 341° |
| 2026-04-16 16:25 | -36.64514 | -64.28483 | 1940 ft | 156 kts | 343° |
| 2026-04-16 16:25 | -36.63472 | -64.28674 | 1712 ft | 149 kts | 2° |
| 2026-04-16 16:26 | -36.62451 | -64.28490 | 1409 ft | 150 kts | 14° |
| 2026-04-16 16:26 | -36.61448 | -64.28207 | 1109 ft | 146 kts | 10° |
| 2026-04-16 16:26 | -36.60465 | -64.27946 | 815 ft | 143 kts | 11° |
| 2026-04-16 16:26 | -36.59506 | -64.27727 | 633 ft | 130 kts | 11° |
| 2026-04-16 16:27 | -36.58882 | -64.27580 | 637 ft | 57 kts | 11° |
| 2026-04-16 16:27 | -36.58527 | -64.27495 | 632 ft | 38 kts | 11° |
| 2026-04-16 16:27 | -36.58296 | -64.27438 | 639 ft | 34 kts | 11° |